Time;durP1;ratioP1;P1;durP2;ratioP2;P2;SDS_P1;SDS_P2;PMS_P1;PMS_P2;Temp;Humidity;BMP_temperature;BMP_pressure;BME280_temperature;BME280_humidity;BME280_pressure;Samples;Min_cycle;Max_cycle;Signal;HPM_P1;HPM_P2
2022/07/14 06:16:36;;;;;;;9.85;1.42;;;;;;;21.48;45.52;96811.69;2083813;28;20559;-66
2022/07/14 06:17:38;;;;;;;14.45;1.80;;;;;;;21.61;45.37;96815.00;2077388;28;20197;-67
2022/07/14 06:18:39;;;;;;;5.53;1.48;;;;;;;21.74;45.74;96814.75;2078605;28;20203;-68
2022/07/14 06:19:41;;;;;;;3.97;1.60;;;;;;;21.81;46.23;96810.59;2078706;28;20276;-66
2022/07/14 06:20:42;;;;;;;54.42;31.35;;;;;;;21.92;46.13;96812.31;2078448;28;20201;-66
2022/07/14 06:21:44;;;;;;;10.30;5.72;;;;;;;21.93;45.91;96810.47;2078200;28;20556;-66
2022/07/14 06:22:45;;;;;;;4.90;1.90;;;;;;;21.91;46.41;96805.28;2078635;28;20556;-66
2022/07/14 06:23:46;;;;;;;8.48;4.00;;;;;;;22.15;45.94;96810.25;2078617;28;20827;-66
2022/07/14 06:24:48;;;;;;;7.50;2.85;;;;;;;22.28;45.93;96811.81;2078659;28;20212;-65
2022/07/14 06:25:49;;;;;;;39.78;22.25;;;;;;;22.53;44.98;96812.31;2078503;28;20250;-66
2022/07/14 06:26:51;;;;;;;7.85;2.42;;;;;;;22.77;43.89;96809.22;2077617;28;20722;-67
2022/07/14 06:27:52;;;;;;;6.82;1.80;;;;;;;22.85;43.28;96806.69;2078598;28;20204;-67
2022/07/14 06:28:54;;;;;;;4.85;1.50;;;;;;;23.11;43.15;96809.59;2078602;28;20288;-66
2022/07/14 06:51:16;;;;;;;6.10;1.35;;;;;;;24.78;37.62;96792.78;2086196;28;20552;-66
2022/07/14 06:52:17;;;;;;;4.00;1.30;;;;;;;24.85;37.63;96796.53;2074285;28;20221;-66
2022/07/14 06:53:19;;;;;;;3.67;1.02;;;;;;;24.90;35.88;96801.38;2073718;28;20199;-66
2022/07/14 06:54:21;;;;;;;3.78;1.30;;;;;;;24.91;36.47;96797.72;2074336;28;20550;-66
2022/07/14 06:55:23;;;;;;;10.52;1.60;;;;;;;24.98;36.23;96797.97;2072737;28;20253;-66
2022/07/14 06:56:24;;;;;;;3.55;1.20;;;;;;;25.07;36.19;96799.69;2073369;28;20208;-66
2022/07/14 06:57:26;;;;;;;2.85;1.27;;;;;;;25.21;35.28;96796.44;2075569;28;20762;-66
2022/07/14 06:58:30;;;;;;;4.45;1.50;;;;;;;25.36;35.69;96795.91;2071071;28;20649;-66
2022/07/14 06:59:31;;;;;;;3.05;1.38;;;;;;;25.51;35.43;96793.47;2074478;28;20197;-66
2022/07/14 07:00:32;;;;;;;4.68;1.30;;;;;;;25.58;35.35;96802.53;2071749;28;20790;-67
2022/07/14 07:01:34;;;;;;;2.47;1.10;;;;;;;25.53;34.72;96795.00;2073672;28;20266;-67
2022/07/14 07:02:37;;;;;;;3.97;1.13;;;;;;;25.65;35.00;96792.03;2075514;28;20270;-67
2022/07/14 07:03:38;;;;;;;7.15;1.25;;;;;;;25.69;34.56;96804.13;2071437;28;20252;-67
2022/07/14 07:04:40;;;;;;;2.33;1.23;;;;;;;25.84;34.61;96798.97;2072871;28;20197;-67
2022/07/14 07:07:03;;;;;;;2.63;1.15;;;;;;;25.87;34.30;96796.81;2072574;28;20228;-67
2022/07/14 07:26:04;;;;;;;5.20;1.10;;;;;;;26.73;33.43;96778.84;2076843;27;1223714;-65
2022/07/14 07:27:06;;;;;;;27.65;11.98;;;;;;;26.79;33.51;96781.84;2098510;28;20867;-66
2022/07/14 07:28:07;;;;;;;13.45;7.90;;;;;;;26.81;33.26;96785.22;2086859;28;20699;-66
2022/07/14 07:29:09;;;;;;;19.60;12.13;;;;;;;26.94;32.98;96784.69;2084966;28;20204;-66
2022/07/14 07:30:10;;;;;;;3.80;2.28;;;;;;;27.02;32.30;96776.63;2086591;28;20200;-66
2022/07/14 07:31:13;;;;;;;3.65;1.58;;;;;;;27.05;32.47;96782.50;2086880;28;20203;-66
2022/07/14 07:32:15;;;;;;;6.38;1.55;;;;;;;27.27;31.63;96787.34;2084390;28;20682;-66
2022/07/14 07:33:16;;;;;;;4.85;1.48;;;;;;;27.40;31.38;96781.47;2086336;28;20188;-66
2022/07/14 07:34:18;;;;;;;4.60;1.20;;;;;;;27.32;31.44;96777.75;2086803;28;20197;-66
2022/07/14 07:35:19;;;;;;;13.63;3.08;;;;;;;27.49;31.23;96781.28;2086693;28;20648;-66
2022/07/14 07:36:21;;;;;;;4.85;1.15;;;;;;;27.49;31.05;96773.25;2086925;28;20216;-66
2022/07/14 07:37:23;;;;;;;4.35;1.00;;;;;;;27.71;31.20;96778.88;2086422;28;20735;-66
2022/07/14 07:38:27;;;;;;;3.13;1.30;;;;;;;27.74;30.11;96775.00;2083385;28;20231;-66
2022/07/14 07:39:30;;;;;;;3.50;1.10;;;;;;;27.66;30.21;96771.34;2086876;28;20200;-66
2022/07/14 07:40:31;;;;;;;3.63;1.08;;;;;;;27.80;29.62;96775.13;2094332;28;20199;-66
2022/07/14 07:41:33;;;;;;;6.55;1.25;;;;;;;27.92;29.05;96772.94;2091787;28;20271;-66
2022/07/14 07:42:35;;;;;;;2.95;1.10;;;;;;;27.87;29.99;96769.91;2085795;28;20228;-66
2022/07/14 07:43:36;;;;;;;2.25;0.90;;;;;;;27.75;30.35;96768.63;2086153;28;20733;-66
2022/07/14 07:44:38;;;;;;;3.40;1.27;;;;;;;27.71;30.11;96770.81;2086050;28;20204;-67
2022/07/14 07:45:39;;;;;;;2.47;1.33;;;;;;;27.84;30.11;96765.72;2086343;28;20209;-67
2022/07/14 07:46:41;;;;;;;2.72;1.20;;;;;;;28.16;29.62;96765.75;2086320;28;20647;-66
2022/07/14 07:47:42;;;;;;;9.52;1.65;;;;;;;27.88;28.96;96768.91;2086857;28;20669;-66
2022/07/14 07:48:44;;;;;;;1.35;0.82;;;;;;;27.87;29.74;96767.22;2086350;28;20234;-66
2022/07/14 07:49:46;;;;;;;3.58;1.00;;;;;;;27.97;29.63;96769.69;2086758;28;20207;-66
2022/07/14 07:50:47;;;;;;;2.03;1.20;;;;;;;28.02;28.84;96767.31;2085939;28;20207;-66
2022/07/14 07:51:49;;;;;;;6.70;1.08;;;;;;;28.15;28.64;96770.31;2085844;28;20639;-66
2022/07/14 07:52:50;;;;;;;2.25;0.95;;;;;;;28.05;28.85;96758.97;2085054;28;20208;-66
2022/07/14 07:53:52;;;;;;;6.40;0.93;;;;;;;28.12;27.81;96762.59;2084747;28;20709;-67
2022/07/14 07:54:54;;;;;;;3.55;1.15;;;;;;;28.09;28.55;96762.97;2086315;28;20209;-66
2022/07/14 07:56:15;;;;;;;5.78;1.27;;;;;;;28.14;28.64;96760.59;2085789;28;20193;-66
2022/07/14 07:57:18;;;;;;;2.15;1.38;;;;;;;28.08;28.74;96749.72;2086226;28;20216;-67
2022/07/14 07:58:20;;;;;;;14.40;1.67;;;;;;;28.14;28.76;96760.59;2085251;28;20200;-66
2022/07/14 07:59:22;;;;;;;4.35;1.15;;;;;;;28.10;28.19;96748.53;2086209;28;20204;-66
2022/07/14 08:00:23;;;;;;;3.58;1.17;;;;;;;28.10;28.02;96753.06;2086727;28;20204;-66
2022/07/14 08:01:25;;;;;;;4.00;1.20;;;;;;;28.04;28.05;96754.59;2086724;28;20273;-67
2022/07/14 08:02:26;;;;;;;1.88;1.10;;;;;;;28.17;27.61;96762.06;2086396;28;20216;-66
2022/07/14 08:25:42;;;;;;;2.75;1.20;;;;;;;29.01;24.70;96718.31;2101003;27;20549;-65
2022/07/14 08:26:44;;;;;;;8.23;1.20;;;;;;;29.04;25.07;96731.38;2098804;28;20250;-66
2022/07/14 08:27:46;;;;;;;3.80;0.90;;;;;;;29.14;24.48;96731.09;2088222;28;20632;-66
2022/07/14 08:28:47;;;;;;;1.30;0.80;;;;;;;29.19;24.03;96725.19;2088571;28;20647;-66
2022/07/14 08:29:49;;;;;;;6.38;1.13;;;;;;;29.38;24.25;96723.81;2085576;28;20201;-67
2022/07/14 08:30:51;;;;;;;2.10;1.00;;;;;;;29.40;23.61;96722.63;2088865;28;20196;-66
2022/07/14 08:31:52;;;;;;;1.88;1.10;;;;;;;29.37;23.23;96723.00;2087242;28;20223;-67
2022/07/14 08:32:54;;;;;;;2.47;0.93;;;;;;;29.41;23.26;96723.47;2093188;28;20711;-67
2022/07/14 08:33:56;;;;;;;1.55;0.98;;;;;;;29.46;23.54;96721.06;2087404;28;20211;-66
2022/07/14 08:34:59;;;;;;;3.85;1.05;;;;;;;29.59;24.02;96721.22;2087824;28;20197;-66
2022/07/14 08:36:01;;;;;;;3.40;0.93;;;;;;;29.74;23.34;96723.06;2087639;28;20200;-66
2022/07/14 08:37:02;;;;;;;3.20;1.57;;;;;;;29.63;22.74;96716.31;2085366;28;20726;-66
2022/07/14 08:38:03;;;;;;;2.30;0.93;;;;;;;29.54;22.78;96714.75;2091620;28;20923;-67
2022/07/14 08:39:12;;;;;;;2.67;1.10;;;;;;;29.56;22.92;96712.69;2089851;28;20433;-68
2022/07/14 08:40:21;;;;;;;10.27;1.30;;;;;;;29.97;23.06;96723.78;2089893;28;20208;-68
2022/07/14 08:41:23;;;;;;;4.82;1.30;;;;;;;29.99;22.36;96717.38;2089708;28;20224;-68
2022/07/14 08:42:25;;;;;;;1.97;1.00;;;;;;;29.88;23.15;96716.00;2088428;28;20631;-69
2022/07/14 08:43:28;;;;;;;1.70;0.90;;;;;;;29.75;22.61;96720.19;2090164;28;20432;-67
2022/07/14 08:44:29;;;;;;;3.60;0.80;;;;;;;29.75;22.73;96709.44;2090381;28;20426;-66
2022/07/14 08:45:37;;;;;;;2.25;1.00;;;;;;;30.07;23.26;96711.91;2089180;28;20480;-66
2022/07/14 08:46:39;;;;;;;2.87;0.93;;;;;;;30.18;22.04;96710.53;2087897;28;20333;-67
2022/07/14 08:47:46;;;;;;;1.77;0.80;;;;;;;30.43;22.19;96711.81;2089892;28;20440;-67
2022/07/14 08:48:48;;;;;;;3.27;1.10;;;;;;;30.49;22.02;96712.09;2089740;28;21102;-67
2022/07/14 09:10:28;;;;;;;3.17;0.90;;;;;;;31.32;19.52;96693.47;2091619;27;21067;-66
2022/07/14 09:11:29;;;;;;;1.63;0.93;;;;;;;31.57;19.38;96696.50;2091984;28;20227;-66
2022/07/14 09:12:31;;;;;;;2.08;0.93;;;;;;;31.90;19.09;96695.03;2082488;28;20453;-66
2022/07/14 09:13:33;;;;;;;2.90;1.03;;;;;;;32.00;18.63;96689.22;2081196;28;20197;-66
2022/07/14 09:16:22;;;;;;;1.70;0.80;;;;;;;32.37;17.94;96692.47;2062517;28;20466;-66
2022/07/14 09:17:25;;;;;;;1.17;0.77;;;;;;;32.42;18.08;96692.66;2059901;28;20468;-66
2022/07/14 09:18:28;;;;;;;2.57;0.83;;;;;;;32.33;18.06;96696.59;2075344;28;20571;-66
2022/07/14 09:19:30;;;;;;;2.70;0.87;;;;;;;31.90;18.05;96687.75;2072766;28;20915;-66
2022/07/14 09:20:32;;;;;;;2.73;0.90;;;;;;;31.80;18.20;96689.19;2072735;28;20431;-66
2022/07/14 09:21:37;;;;;;;5.33;3.30;;;;;;;31.83;18.41;96684.19;2073707;28;20423;-66
2022/07/14 09:22:41;;;;;;;3.03;2.27;;;;;;;32.24;18.59;96683.28;2088523;28;20439;-66
2022/07/14 09:23:44;;;;;;;2.10;1.03;;;;;;;32.49;17.81;96684.56;2088996;28;20430;-67
2022/07/14 09:24:52;;;;;;;2.27;1.10;;;;;;;32.64;17.53;96674.38;2089658;28;20428;-67
2022/07/14 09:26:15;;;;;;;9.63;6.30;;;;;;;32.55;17.85;96679.16;2084497;28;20429;-66
2022/07/14 09:27:20;;;;;;;3.57;1.87;;;;;;;32.29;17.69;96679.97;2089050;28;20458;-66
2022/07/14 09:28:26;;;;;;;2.00;0.83;;;;;;;32.49;18.73;96687.25;2087355;28;20437;-66
2022/07/14 09:29:29;;;;;;;2.10;0.83;;;;;;;32.48;18.20;96680.19;2089060;28;20445;-66
2022/07/14 09:30:31;;;;;;;2.20;0.90;;;;;;;32.68;17.92;96672.09;2087685;28;20449;-66
2022/07/14 09:31:33;;;;;;;12.40;1.10;;;;;;;32.81;17.84;96679.38;2092851;28;20432;-66
2022/07/14 09:32:51;;;;;;;1.40;0.80;;;;;;;32.79;17.77;96682.31;2088753;28;20433;-67
2022/07/14 09:34:05;;;;;;;1.70;0.90;;;;;;;32.73;18.34;96672.28;2090313;28;20429;-66
2022/07/14 09:35:07;;;;;;;3.67;0.83;;;;;;;33.17;18.21;96667.28;2088659;28;20951;-66
2022/07/14 09:36:20;;;;;;;2.90;1.20;;;;;;;33.15;17.99;96685.59;2091570;28;20752;-66
2022/07/14 09:37:25;;;;;;;1.60;1.00;;;;;;;32.90;18.02;96672.75;2087553;28;20633;-66
2022/07/14 09:38:29;;;;;;;2.87;1.07;;;;;;;32.73;18.24;96675.00;2089288;28;21036;-66
2022/07/14 09:39:30;;;;;;;11.00;0.80;;;;;;;32.69;18.75;96677.28;2089538;28;20856;-66
2022/07/14 09:40:32;;;;;;;1.47;0.80;;;;;;;32.62;18.61;96664.81;2086789;28;20429;-66
2022/07/14 09:41:49;;;;;;;1.00;0.70;;;;;;;32.31;18.88;96660.88;2088988;28;20429;-66
2022/07/14 09:42:51;;;;;;;1.67;0.80;;;;;;;32.38;19.10;96665.22;2089809;28;20923;-65
2022/07/14 10:05:26;;;;;;;3.77;1.00;;;;;;;33.18;19.51;96656.25;2125429;27;20286;-64
2022/07/14 10:06:29;;;;;;;6.33;1.37;;;;;;;32.78;20.23;96660.91;2119867;28;20452;-64
2022/07/14 10:07:38;;;;;;;3.30;1.17;;;;;;;32.96;19.88;96668.34;2102498;28;20500;-64
2022/07/14 10:08:43;;;;;;;6.40;1.50;;;;;;;33.25;19.81;96652.69;2103629;28;20831;-64
2022/07/14 10:09:54;;;;;;;2.90;1.17;;;;;;;33.44;19.33;96653.72;2102769;28;20970;-64
2022/07/14 10:10:59;;;;;;;3.27;1.20;;;;;;;33.65;19.34;96650.69;2103027;28;20431;-63
2022/07/14 10:12:03;;;;;;;3.40;1.00;;;;;;;33.78;18.59;96640.88;2103271;28;20451;-64
2022/07/14 10:13:05;;;;;;;2.23;1.10;;;;;;;33.88;19.15;96646.66;2101357;28;20427;-64
2022/07/14 10:14:12;;;;;;;2.67;1.20;;;;;;;33.66;18.75;96644.25;2100859;28;20466;-64
2022/07/14 10:15:14;;;;;;;1.90;1.20;;;;;;;33.67;19.57;96650.47;2103563;28;20420;-64
2022/07/14 10:16:16;;;;;;;3.00;1.17;;;;;;;33.90;19.25;96652.69;2103682;28;20748;-64
2022/07/14 10:17:19;;;;;;;2.30;1.00;;;;;;;34.20;19.28;96654.78;2102517;28;20811;-64
2022/07/14 10:18:22;;;;;;;2.27;1.00;;;;;;;34.21;18.95;96656.47;2103245;28;20803;-64
2022/07/14 10:19:28;;;;;;;5.20;1.50;;;;;;;34.19;19.03;96650.44;2103120;28;20435;-64
2022/07/14 10:20:31;;;;;;;3.00;1.03;;;;;;;34.57;18.68;96643.31;2103694;28;20426;-64
2022/07/14 10:21:34;;;;;;;3.90;1.17;;;;;;;34.64;19.00;96641.34;2094412;28;20445;-64
2022/07/14 10:22:36;;;;;;;4.43;1.13;;;;;;;34.16;18.76;96642.75;2094346;28;20786;-64
2022/07/14 10:23:38;;;;;;;3.77;1.10;;;;;;;34.38;19.16;96639.69;2099265;28;20443;-64
2022/07/14 10:24:41;;;;;;;7.13;1.07;;;;;;;34.49;19.29;96647.13;2095907;28;20428;-64
2022/07/14 10:25:46;;;;;;;2.70;1.17;;;;;;;33.77;19.17;96644.59;2103312;28;20431;-64
2022/07/14 10:26:47;;;;;;;4.07;1.33;;;;;;;33.15;19.96;96647.72;2101541;28;20428;-64
2022/07/14 10:27:50;;;;;;;4.13;1.53;;;;;;;33.03;20.16;96640.25;2103387;28;20435;-64
2022/07/14 10:28:52;;;;;;;2.10;1.00;;;;;;;33.13;19.86;96629.00;2103529;28;20427;-64
2022/07/14 10:29:56;;;;;;;7.43;1.10;;;;;;;33.50;20.03;96631.22;2103509;28;20790;-64
2022/07/14 10:31:20;;;;;;;4.63;1.17;;;;;;;33.82;20.05;96623.16;2102972;28;20432;-65
2022/07/14 10:32:34;;;;;;;2.80;1.00;;;;;;;34.09;19.36;96631.13;2102942;28;20555;-64
2022/07/14 10:33:55;;;;;;;5.87;1.23;;;;;;;34.00;20.12;96619.72;2101420;28;20475;-64
2022/07/14 10:35:13;;;;;;;1.67;0.93;;;;;;;34.41;19.96;96628.41;2102766;28;20978;-65
2022/07/14 10:36:33;;;;;;;5.47;1.10;;;;;;;34.20;19.73;96630.41;2103256;28;20434;-64
2022/07/14 10:37:51;;;;;;;2.70;1.10;;;;;;;34.29;19.74;96623.66;2102872;28;21436;-64
2022/07/14 10:39:12;;;;;;;5.77;1.77;;;;;;;34.74;19.58;96624.56;2102924;28;20427;-64
2022/07/14 10:40:20;;;;;;;7.13;1.20;;;;;;;34.81;19.27;96623.47;2103269;28;20446;-64
2022/07/14 10:41:32;;;;;;;5.20;1.30;;;;;;;35.02;19.63;96628.72;2103158;28;20427;-64
2022/07/14 10:43:00;;;;;;;3.23;1.10;;;;;;;34.70;19.00;96618.75;2102230;28;20966;-64
2022/07/14 10:44:11;;;;;;;3.73;1.60;;;;;;;35.20;19.56;96623.31;2103098;28;20841;-64
2022/07/14 10:45:18;;;;;;;7.20;1.30;;;;;;;35.38;19.12;96616.25;2102922;28;20458;-64
2022/07/14 10:46:38;;;;;;;2.97;1.20;;;;;;;35.48;18.87;96613.81;2101350;28;20427;-64
2022/07/14 10:47:48;;;;;;;3.33;1.27;;;;;;;35.76;18.63;96613.22;2102800;28;20443;-65
2022/07/14 10:48:51;;;;;;;6.63;1.30;;;;;;;35.46;18.19;96619.47;2103026;28;20455;-64
2022/07/14 10:50:09;;;;;;;2.93;1.20;;;;;;;35.53;18.44;96613.97;2103288;28;20428;-64
2022/07/14 10:51:14;;;;;;;2.73;1.10;;;;;;;35.58;18.92;96608.69;2103298;28;20465;-64
2022/07/14 10:52:26;;;;;;;3.77;1.10;;;;;;;35.87;18.31;96611.66;2102532;28;20456;-64
2022/07/14 10:53:29;;;;;;;3.03;1.10;;;;;;;35.28;19.05;96616.75;2101305;28;20424;-64
2022/07/14 10:54:30;;;;;;;10.13;1.40;;;;;;;34.81;19.06;96617.22;2103322;28;20434;-63
2022/07/14 11:19:40;;;;;;;1.77;1.00;;;;;;;34.83;19.58;96599.66;2087408;28;20918;-63
2022/07/14 11:20:50;;;;;;;4.23;1.27;;;;;;;34.73;19.42;96598.50;2084936;28;20939;-64
2022/07/14 11:22:36;;;;;;;3.30;1.00;;;;;;;34.88;19.26;96585.47;2080754;28;20835;-64
2022/07/14 11:23:53;;;;;;;4.63;1.20;;;;;;;34.58;20.11;96586.16;2075135;28;20446;-64
2022/07/14 11:25:00;;;;;;;2.30;1.20;;;;;;;34.81;20.07;96590.94;2075143;28;20961;-64
2022/07/14 11:26:05;;;;;;;4.87;1.40;;;;;;;34.86;19.28;96590.28;2074530;28;20957;-64
2022/07/14 11:27:27;;;;;;;5.00;1.60;;;;;;;34.56;19.49;96593.66;2069166;28;20459;-64
2022/07/14 11:28:43;;;;;;;7.33;0.90;;;;;;;34.43;19.88;96582.97;2066667;28;20430;-64
2022/07/14 11:29:45;;;;;;;1.90;1.00;;;;;;;34.73;19.45;96579.53;2065976;28;20685;-64
2022/07/14 11:31:10;;;;;;;2.90;1.43;;;;;;;34.99;19.68;96567.63;2065859;28;20420;-64
2022/07/14 11:32:31;;;;;;;7.73;1.30;;;;;;;35.25;19.38;96582.75;2065386;28;20464;-64
2022/07/14 11:33:33;;;;;;;3.00;1.30;;;;;;;35.10;19.28;96587.75;2067093;28;21070;-64
2022/07/14 11:37:56;;;;;;;6.77;1.10;;;;;;;35.22;19.42;96574.25;2068046;28;20462;-64
2022/07/14 11:39:16;;;;;;;10.10;1.20;;;;;;;34.22;19.23;96571.44;2066064;28;20807;-64
2022/07/14 11:40:43;;;;;;;11.97;1.37;;;;;;;34.08;19.45;96569.88;2065765;28;21150;-64
2022/07/14 11:41:50;;;;;;;8.13;1.17;;;;;;;33.89;19.79;96563.56;2066421;28;20477;-64
2022/07/14 11:43:30;;;;;;;8.20;1.10;;;;;;;34.53;19.66;96567.03;2065948;28;20428;-63
2022/07/14 11:44:41;;;;;;;2.73;1.10;;;;;;;34.56;19.29;96566.56;2066401;28;20526;-63
2022/07/14 11:45:54;;;;;;;2.50;0.90;;;;;;;34.95;19.61;96567.22;2069033;28;20432;-64
2022/07/14 11:46:58;;;;;;;1.40;0.90;;;;;;;35.24;19.05;96572.13;2067705;28;20451;-64
2022/07/14 11:48:00;;;;;;;7.37;0.90;;;;;;;35.67;18.86;96559.47;2062461;28;21122;-64
2022/07/14 11:49:02;;;;;;;4.57;1.30;;;;;;;35.83;18.51;96561.53;2062316;28;20443;-64
2022/07/14 11:50:09;;;;;;;3.43;1.27;;;;;;;35.70;19.05;96564.47;2062444;28;20432;-64
2022/07/14 11:51:18;;;;;;;3.20;1.13;;;;;;;35.98;18.75;96566.56;2064595;28;20442;-65
2022/07/14 11:52:26;;;;;;;4.13;1.00;;;;;;;35.53;18.90;96567.81;2066355;28;20989;-65
2022/07/14 11:53:28;;;;;;;3.67;1.10;;;;;;;35.37;18.79;96566.56;2066981;28;20423;-65
2022/07/14 11:54:30;;;;;;;7.87;1.50;;;;;;;34.95;18.86;96556.38;2066854;28;20455;-64
2022/07/14 11:55:37;;;;;;;4.03;1.10;;;;;;;35.14;19.21;96556.41;2068270;28;20446;-65
2022/07/14 11:56:39;;;;;;;13.77;5.43;;;;;;;35.64;18.70;96556.19;2065572;28;20467;-64
2022/07/14 11:57:49;;;;;;;3.53;1.83;;;;;;;36.05;18.35;96556.44;2065087;28;20895;-65
2022/07/14 11:58:52;;;;;;;16.20;10.83;;;;;;;36.11;18.62;96550.06;2062358;28;20431;-65
2022/07/14 12:00:00;;;;;;;6.30;1.33;;;;;;;35.63;19.07;96556.38;2062326;28;21008;-65
2022/07/14 12:01:03;;;;;;;2.63;1.00;;;;;;;35.42;19.56;96555.84;2066258;28;20423;-64
2022/07/14 12:02:14;;;;;;;1.57;1.00;;;;;;;35.15;19.18;96560.78;2066438;28;20832;-64
2022/07/14 12:03:16;;;;;;;3.50;0.93;;;;;;;34.66;18.51;96547.09;2066665;28;20447;-65
2022/07/14 12:04:17;;;;;;;2.10;0.90;;;;;;;33.98;19.12;96546.81;2062346;28;20452;-65
2022/07/14 12:05:24;;;;;;;4.30;1.03;;;;;;;33.86;19.35;96554.00;2064841;28;20832;-65
2022/07/14 12:06:26;;;;;;;2.10;1.03;;;;;;;33.58;19.48;96557.88;2064776;28;20460;-65
2022/07/14 12:07:46;;;;;;;6.27;1.00;;;;;;;33.29;19.98;96554.69;2064671;28;20475;-63
2022/07/14 12:08:47;;;;;;;7.53;1.40;;;;;;;32.97;20.40;96561.88;2066380;28;20434;-64
2022/07/14 12:10:10;;;;;;;2.27;1.20;;;;;;;32.96;20.37;96560.22;2063615;28;20468;-65
2022/07/14 12:11:13;;;;;;;9.93;1.10;;;;;;;32.99;20.73;96567.88;2066236;28;20436;-65
2022/07/14 12:12:18;;;;;;;3.93;1.10;;;;;;;32.91;20.44;96560.84;2061736;28;20975;-65
2022/07/14 12:13:20;;;;;;;7.27;1.23;;;;;;;33.05;20.96;96556.22;2062308;28;20432;-65
2022/07/14 12:14:23;;;;;;;4.40;1.33;;;;;;;33.19;20.71;96557.00;2063104;28;20440;-64
2022/07/14 12:15:32;;;;;;;5.13;1.30;;;;;;;33.07;20.86;96553.31;2064870;28;20438;-65
2022/07/14 12:16:43;;;;;;;4.30;1.10;;;;;;;32.82;20.51;96562.94;2065208;28;20438;-68
2022/07/14 12:17:46;;;;;;;1.83;1.13;;;;;;;32.81;20.80;96549.63;2066406;28;20519;-67
2022/07/14 12:18:52;;;;;;;3.33;1.17;;;;;;;32.91;20.84;96547.31;2064811;28;20432;-66
2022/07/14 12:19:54;;;;;;;2.07;1.10;;;;;;;33.14;20.75;96543.28;2065891;28;20471;-68
2022/07/14 12:20:55;;;;;;;4.83;1.50;;;;;;;33.45;20.65;96541.75;2066185;28;20432;-67
2022/07/14 12:21:59;;;;;;;3.67;1.60;;;;;;;33.52;20.49;96546.06;2064574;28;20462;-67
2022/07/14 12:23:00;;;;;;;2.60;1.20;;;;;;;33.28;20.58;96544.94;2065553;28;20432;-68
2022/07/14 12:24:05;;;;;;;5.10;1.10;;;;;;;33.02;20.61;96518.81;2065107;28;20436;-66
2022/07/14 12:25:33;;;;;;;2.60;1.07;;;;;;;32.60;20.10;96532.63;2066890;28;20486;-67
2022/07/14 12:26:35;;;;;;;2.60;1.00;;;;;;;32.33;20.67;96542.63;2065562;28;20811;-67
2022/07/14 12:27:37;;;;;;;3.40;0.90;;;;;;;32.56;20.63;96531.38;2065966;28;20443;-66
2022/07/14 12:28:46;;;;;;;3.10;1.50;;;;;;;32.59;20.55;96539.06;2065817;28;20447;-66
2022/07/14 12:29:49;;;;;;;8.73;1.10;;;;;;;32.68;21.01;96539.66;2066275;28;20945;-68
2022/07/14 12:30:56;;;;;;;9.87;1.30;;;;;;;32.55;21.53;96537.81;2062276;28;20510;-67
2022/07/14 12:31:59;;;;;;;2.63;1.03;;;;;;;32.37;21.59;96531.19;2062090;28;20451;-65
2022/07/14 12:33:01;;;;;;;8.00;1.17;;;;;;;32.52;21.13;96543.66;2065092;28;20434;-66
2022/07/14 12:34:03;;;;;;;9.37;4.00;;;;;;;32.29;21.20;96544.09;2056890;28;20440;-63
2022/07/14 12:35:05;;;;;;;3.40;1.27;;;;;;;32.26;21.59;96529.13;2056796;28;20428;-62
2022/07/14 12:36:13;;;;;;;5.50;2.33;;;;;;;32.34;21.30;96547.84;2058972;28;20439;-66
2022/07/14 12:37:15;;;;;;;3.00;1.90;;;;;;;32.46;21.47;96542.63;2060018;28;20456;-62
2022/07/14 12:38:19;;;;;;;3.93;1.30;;;;;;;32.27;21.07;96538.91;2059868;28;20819;-66
2022/07/14 12:39:20;;;;;;;7.03;1.70;;;;;;;32.46;20.90;96536.41;2059706;28;20429;-65
2022/07/14 12:40:22;;;;;;;4.50;1.30;;;;;;;32.46;21.29;96537.22;2059517;28;20443;-63
2022/07/14 12:41:25;;;;;;;2.53;1.00;;;;;;;32.45;21.40;96540.94;2059152;28;20425;-62
2022/07/14 12:42:26;;;;;;;2.17;1.03;;;;;;;32.54;21.36;96539.72;2060244;28;20462;-66
2022/07/14 12:43:31;;;;;;;5.63;1.10;;;;;;;32.56;21.89;96542.19;2061305;28;20431;-63
2022/07/14 12:44:32;;;;;;;4.90;1.13;;;;;;;32.59;21.96;96541.75;2062456;28;20428;-63
2022/07/14 12:45:59;;;;;;;4.50;1.43;;;;;;;32.77;21.99;96540.31;2059064;28;20440;-64
2022/07/14 12:47:12;;;;;;;4.50;1.47;;;;;;;32.57;21.83;96538.47;2056103;28;20507;-62
2022/07/14 12:48:13;;;;;;;11.40;1.10;;;;;;;32.68;22.42;96537.81;2056463;28;20460;-63
2022/07/14 12:49:15;;;;;;;9.03;1.30;;;;;;;32.78;22.05;96541.97;2061344;28;20436;-65
2022/07/14 12:50:21;;;;;;;3.07;1.03;;;;;;;32.88;21.75;96539.66;2060382;28;20424;-63
2022/07/14 12:51:26;;;;;;;4.53;1.57;;;;;;;32.92;21.64;96540.88;2060821;28;20436;-62
2022/07/14 12:52:49;;;;;;;4.73;1.20;;;;;;;32.79;21.93;96539.06;2058433;28;20479;-60
2022/07/14 12:54:02;;;;;;;2.77;1.10;;;;;;;32.63;21.88;96534.06;2060641;28;20963;-65
2022/07/14 12:55:04;;;;;;;1.80;0.93;;;;;;;33.04;21.71;96535.66;2062984;28;20434;-64
2022/07/14 12:56:10;;;;;;;5.40;1.20;;;;;;;33.16;21.56;96533.09;2059406;28;20436;-65
2022/07/14 12:57:22;;;;;;;2.23;0.93;;;;;;;33.59;21.08;96539.78;2061252;28;20495;-65
2022/07/14 12:58:26;;;;;;;5.17;1.00;;;;;;;33.92;21.14;96531.47;2059543;28;20436;-64
2022/07/14 12:59:37;;;;;;;9.40;1.20;;;;;;;34.45;20.81;96538.34;2060569;28;20428;-64
2022/07/14 13:00:44;;;;;;;3.90;1.20;;;;;;;34.53;20.63;96531.78;2057488;28;20425;-65
2022/07/14 13:01:52;;;;;;;2.17;1.23;;;;;;;34.38;20.72;96539.44;2058313;28;20779;-65
2022/07/14 13:03:07;;;;;;;3.50;1.17;;;;;;;34.46;20.92;96531.88;2061450;28;20433;-65
2022/07/14 13:04:09;;;;;;;2.23;1.30;;;;;;;34.32;21.27;96531.13;2062255;28;21126;-65
2022/07/14 13:05:10;;;;;;;1.97;1.00;;;;;;;34.18;21.00;96546.66;2062333;28;20428;-64
2022/07/14 13:06:12;;;;;;;6.20;1.30;;;;;;;33.56;21.55;96541.06;2060261;28;20902;-66
2022/07/14 13:07:25;;;;;;;3.60;1.20;;;;;;;33.11;21.87;96533.72;2060877;28;20461;-65
2022/07/14 13:08:32;;;;;;;5.13;1.10;;;;;;;33.26;22.11;96533.47;2061130;28;20428;-65
2022/07/14 13:09:33;;;;;;;4.40;1.13;;;;;;;33.05;21.89;96540.00;2060375;28;20437;-65
2022/07/14 13:10:53;;;;;;;8.30;1.27;;;;;;;32.84;22.14;96533.84;2057545;28;20413;-65
2022/07/14 13:11:55;;;;;;;2.40;0.90;;;;;;;32.83;22.54;96540.28;2061393;28;20448;-65
2022/07/14 13:12:57;;;;;;;7.80;1.10;;;;;;;32.76;22.16;96542.19;2056587;28;20905;-64
2022/07/14 13:13:59;;;;;;;3.53;0.93;;;;;;;32.67;21.84;96536.16;2060437;28;20433;-64
2022/07/14 13:15:04;;;;;;;1.97;0.93;;;;;;;32.76;22.21;96536.78;2059040;28;20440;-65
2022/07/14 13:16:30;;;;;;;2.07;1.00;;;;;;;32.48;21.84;96537.84;2056583;28;20425;-65
2022/07/14 13:17:51;;;;;;;3.20;1.10;;;;;;;32.71;22.80;96534.69;2059873;28;20461;-65
2022/07/14 13:19:14;;;;;;;1.70;0.90;;;;;;;32.77;22.33;96535.72;2058701;28;20433;-64
2022/07/14 13:20:47;;;;;;;6.10;1.10;;;;;;;32.72;22.34;96536.34;2060098;28;20464;-65
2022/07/14 13:21:54;;;;;;;1.70;0.87;;;;;;;33.00;22.11;96532.53;2060436;28;20527;-65
2022/07/14 13:22:56;;;;;;;3.50;1.00;;;;;;;33.15;22.60;96529.53;2060132;28;20470;-66
2022/07/14 13:23:57;;;;;;;27.00;13.80;;;;;;;33.08;22.66;96536.03;2058327;28;20424;-65
2022/07/14 13:24:59;;;;;;;5.37;2.17;;;;;;;33.09;22.72;96533.13;2058491;28;20432;-65
2022/07/14 13:26:10;;;;;;;4.80;1.40;;;;;;;32.98;22.82;96534.63;2060987;28;20484;-66
2022/07/14 13:27:17;;;;;;;5.50;2.10;;;;;;;32.34;22.62;96536.19;2062002;28;20479;-65
2022/07/14 13:28:44;;;;;;;3.27;1.03;;;;;;;32.11;23.23;96534.72;2058626;28;20536;-66
2022/07/14 13:29:49;;;;;;;5.10;1.03;;;;;;;32.18;23.15;96524.78;2059646;28;20450;-66
2022/07/14 13:31:03;;;;;;;2.50;1.20;;;;;;;31.99;23.14;96531.81;2060378;28;20436;-66
2022/07/14 13:32:06;;;;;;;2.00;1.00;;;;;;;31.99;23.47;96525.59;2059392;28;20456;-65
2022/07/14 13:33:08;;;;;;;2.60;1.20;;;;;;;32.03;23.49;96527.66;2058999;28;20491;-64
2022/07/14 13:34:17;;;;;;;3.03;1.40;;;;;;;32.20;23.33;96532.66;2059404;28;20427;-65
2022/07/14 13:35:20;;;;;;;6.07;1.47;;;;;;;32.62;22.82;96525.16;2061395;28;20915;-66
2022/07/14 13:36:22;;;;;;;5.67;1.10;;;;;;;33.27;22.21;96532.44;2056279;28;20429;-65
2022/07/14 13:37:23;;;;;;;1.80;1.17;;;;;;;33.80;21.90;96539.44;2055636;28;20456;-64
2022/07/14 13:38:26;;;;;;;4.60;1.20;;;;;;;34.18;21.32;96532.28;2061258;28;20444;-65
2022/07/14 13:39:28;;;;;;;1.87;1.10;;;;;;;34.21;21.50;96526.44;2059045;28;20912;-65
2022/07/14 13:40:29;;;;;;;5.80;1.00;;;;;;;34.70;21.46;96525.78;2055997;28;20469;-64